Aeroporto :
LOGIN :

Iscrizione | Disclaimer

   EN    FR    IT 

 










Sommario :    VFR   VFR Marginale   IFR   IFR Intensivo   IFR Molto Intensivo
Visibilità : 
Base nubi : 
>= 8 km
>= 3000ft
5 / 8 km
1000 / 3000 ft
1500m / 5 km
500 / 1000 ft
800 / 1500m
200 / 500 ft
< 800m
< 200 ft
Simboli :   Temporali  Nebbia  Neve Forte  Precipitazioni Forti  Vento > 20 kt
SIGMETs :   Varie  Temporali  Ghiacco  Turbolenza  Onda orograficha  Ceneri Vulcaniche






- Altitudine del aeroporto : 81 ft
- Codice IATA : SCS


EGPM - Scatsta

ULTIMO METAR :
  • 170920Z AUTO VRB03KT 9999 -RA OVC021/// 05/03 Q1012

METARs OBSOLETI :
  • 170850Z AUTO 30005KT 250V330 9999 BKN022/// BKN035/// 05/03 Q1012
  • 170820Z AUTO VRB03KT 9999 BKN022/// OVC037/// 04/03 Q1011
  • 170750Z AUTO VRB02KT 9999 BKN017/// OVC032/// 04/03 Q1011
  • 170720Z AUTO 23005KT 9999 OVC028/// 03/02 Q1010
  • 170650Z AUTO 22004KT 9999 FEW018/// OVC027/// 03/02 Q1010

TAF TAF EGPM
Valido dal 17 a 09 ore il 17 a 18 ore UTC


170800Z 1709/1718 34008KT 9999 SCT020
PROB30
TEMPO 1709/1718 6000 SHRA BKN014



MetMap, La meteo Aeronautica in un colpo d'occhio ! - Copyright ORBIFLY Dicembre 2007 - Disclaimer

ORBIFLY MET'MAP TEAM :

Programmazione e sviluppo : Alexandra Zaïnal
Concezione e sviluppo : Baudouin d'Aumeries
Co-Programmazione e sviluppo : Marc-Olivier Méhu
Supporto tecnico e logistico : Manuel Goepfert
Aiuto per la traduzione : Arnaldo La Scala

Contatto : metmap@orbifly.com




FONTI E CREDITI :

   NOAA